Time;durP1;ratioP1;P1;durP2;ratioP2;P2;SDS_P1;SDS_P2;PMS_P1;PMS_P2;Temp;Humidity;BMP_temperature;BMP_pressure;BME280_temperature;BME280_humidity;BME280_pressure;Samples;Min_cycle;Max_cycle;Signal;HPM_P1;HPM_P2
2022/06/30 00:00:59;;;;;;;9.60;8.60;;;;;;;27.75;43.24;100327.80;117019;1188;23564;-47
2022/06/30 00:03:26;;;;;;;9.30;8.40;;;;;;;27.66;43.70;100329.50;117056;1188;23920;-58
2022/06/30 00:05:53;;;;;;;11.40;9.90;;;;;;;27.48;43.88;100326.98;117274;1188;23554;-58
2022/06/30 00:08:20;;;;;;;10.60;9.50;;;;;;;27.39;43.92;100328.83;117128;1188;23633;-47
2022/06/30 00:10:47;;;;;;;11.00;9.40;;;;;;;27.35;44.16;100322.50;117211;1188;22999;-58
2022/06/30 00:13:14;;;;;;;12.60;10.00;;;;;;;27.32;44.40;100322.61;117194;1189;22529;-47
2022/06/30 00:15:41;;;;;;;10.50;9.40;;;;;;;27.23;44.48;100316.27;117065;1188;23576;-57
2022/06/30 00:18:08;;;;;;;12.40;9.60;;;;;;;27.20;44.63;100319.58;117076;1188;23650;-59
2022/06/30 00:20:35;;;;;;;11.00;9.40;;;;;;;27.21;44.52;100324.21;117215;1187;24824;-47
2022/06/30 00:23:02;;;;;;;12.10;10.30;;;;;;;27.17;44.66;100322.75;117191;1187;24150;-58
2022/06/30 00:25:30;;;;;;;11.70;9.90;;;;;;;27.16;44.83;100318.88;117117;1188;23557;-47
2022/06/30 00:27:57;;;;;;;14.80;10.30;;;;;;;27.12;44.91;100319.59;117118;1188;23897;-47
2022/06/30 00:30:24;;;;;;;12.10;10.20;;;;;;;27.09;44.90;100319.14;117110;1188;23558;-50
2022/06/30 00:32:51;;;;;;;10.20;9.20;;;;;;;27.07;45.07;100317.66;117137;1187;23580;-46
2022/06/30 00:35:18;;;;;;;12.50;10.10;;;;;;;27.00;45.09;100316.77;117114;1188;23579;-58
2022/06/30 00:37:45;;;;;;;10.70;9.20;;;;;;;26.95;45.26;100316.48;117217;1190;24162;-46
2022/06/30 00:40:12;;;;;;;11.90;9.50;;;;;;;26.87;45.43;100321.05;117173;1187;23601;-57
2022/06/30 00:42:39;;;;;;;12.80;9.80;;;;;;;26.86;45.56;100331.54;117301;1188;21865;-58
2022/06/30 00:45:06;;;;;;;11.70;9.10;;;;;;;26.88;45.46;100340.92;117133;1188;23574;-58
2022/06/30 00:47:33;;;;;;;11.80;9.90;;;;;;;26.84;45.49;100336.00;117139;1187;23560;-47
2022/06/30 00:50:01;;;;;;;9.50;8.60;;;;;;;26.80;45.40;100325.58;117040;1188;23598;-47
2022/06/30 00:52:29;;;;;;;11.00;8.80;;;;;;;26.76;45.41;100326.60;117198;1188;23556;-46
2022/06/30 00:54:56;;;;;;;12.70;9.20;;;;;;;26.73;45.52;100332.20;117211;1188;23567;-57
2022/06/30 00:57:23;;;;;;;9.80;8.60;;;;;;;26.77;45.40;100340.88;117219;1186;24303;-58
2022/06/30 00:59:53;;;;;;;10.40;8.60;;;;;;;26.85;45.35;100344.05;116979;1187;23649;-57
2022/06/30 01:02:20;;;;;;;13.90;9.00;;;;;;;26.89;45.29;100337.44;117263;1186;23569;-48
2022/06/30 01:04:47;;;;;;;10.30;8.90;;;;;;;26.90;45.35;100331.09;117101;1188;23557;-59
2022/06/30 01:07:15;;;;;;;11.10;8.80;;;;;;;26.89;45.35;100334.40;116941;1189;23557;-47
2022/06/30 01:12:43;;;;;;;10.40;9.30;;;;;;;26.88;45.49;100337.14;117052;1188;23563;-58
2022/06/30 01:15:17;;;;;;;10.30;8.90;;;;;;;26.85;45.58;100331.86;117016;1188;23580;-46
2022/06/30 01:17:45;;;;;;;9.70;8.70;;;;;;;26.81;45.73;100323.33;117121;1188;21982;-46
2022/06/30 01:20:13;;;;;;;10.20;8.50;;;;;;;26.75;45.82;100320.89;117077;1187;23612;-47
2022/06/30 01:22:40;;;;;;;10.00;8.80;;;;;;;26.69;46.06;100320.64;117234;1187;21888;-57
2022/06/30 01:25:07;;;;;;;14.70;9.70;;;;;;;26.63;46.10;100322.41;117184;1187;21862;-47
2022/06/30 01:27:34;;;;;;;13.00;8.60;;;;;;;26.59;46.15;100326.73;117110;1188;23494;-58
2022/06/30 01:30:02;;;;;;;10.50;9.10;;;;;;;26.57;46.27;100321.45;117078;1188;23570;-46
2022/06/30 01:32:29;;;;;;;14.00;9.20;;;;;;;26.52;46.46;100315.20;117142;1187;23570;-57
2022/06/30 01:34:57;;;;;;;11.70;8.80;;;;;;;26.39;46.53;100315.02;117083;1187;23557;-59
2022/06/30 01:37:25;;;;;;;10.60;9.40;;;;;;;26.20;46.62;100319.52;117201;1187;23557;-56
2022/06/30 01:39:52;;;;;;;13.20;8.70;;;;;;;26.08;46.73;100328.17;117096;1187;22273;-59
2022/06/30 01:42:20;;;;;;;11.20;8.80;;;;;;;26.04;46.76;100328.34;117119;1188;23557;-47
2022/06/30 01:44:47;;;;;;;13.90;8.90;;;;;;;26.02;46.83;100331.89;117095;1187;22148;-47
2022/06/30 01:47:14;;;;;;;12.00;9.50;;;;;;;25.99;46.90;100333.70;117086;1188;23579;-58
2022/06/30 01:49:41;;;;;;;13.70;9.20;;;;;;;25.95;46.96;100336.90;117055;1188;24235;-47
2022/06/30 01:52:08;;;;;;;13.30;9.50;;;;;;;25.92;46.99;100347.90;117103;1188;23555;-58
2022/06/30 01:54:35;;;;;;;10.00;9.00;;;;;;;25.90;47.11;100346.30;117131;1187;23595;-46
2022/06/30 01:57:02;;;;;;;10.90;9.30;;;;;;;25.84;47.08;100347.78;117147;1187;23557;-46
2022/06/30 01:59:29;;;;;;;12.10;8.70;;;;;;;25.77;47.20;100352.33;117141;1188;23559;-57
2022/06/30 02:01:56;;;;;;;9.90;8.90;;;;;;;25.70;47.43;100355.33;117123;1187;23558;-58
2022/06/30 02:07:09;;;;;;;12.00;9.20;;;;;;;25.65;47.42;100349.08;117037;1188;21848;-46
2022/06/30 02:09:36;;;;;;;10.00;8.60;;;;;;;25.65;47.48;100342.12;117058;1183;21950;-58
2022/06/30 02:14:49;;;;;;;11.80;8.40;;;;;;;25.63;47.49;100335.05;117143;1188;23580;-57
2022/06/30 02:17:16;;;;;;;12.50;8.50;;;;;;;25.62;47.41;100340.54;117087;1188;23596;-58
2022/06/30 02:19:43;;;;;;;11.00;8.60;;;;;;;25.61;47.48;100342.91;117202;1188;23544;-58
2022/06/30 02:22:11;;;;;;;12.50;8.50;;;;;;;25.60;47.50;100343.05;117036;1188;23589;-46
2022/06/30 02:24:38;;;;;;;12.40;9.20;;;;;;;25.58;47.63;100347.82;117124;1188;23650;-46
2022/06/30 02:27:05;;;;;;;10.20;8.80;;;;;;;25.57;47.64;100355.13;117107;1188;23571;-47
2022/06/30 02:29:32;;;;;;;10.50;8.50;;;;;;;25.51;47.67;100352.99;117179;1187;23554;-46
2022/06/30 02:32:00;;;;;;;10.60;8.30;;;;;;;25.48;47.87;100357.54;116995;1187;23576;-58
2022/06/30 02:34:30;;;;;;;11.50;8.40;;;;;;;25.46;47.83;100361.81;117005;1187;23557;-58
2022/06/30 02:36:57;;;;;;;10.80;8.60;;;;;;;25.43;47.90;100367.27;117070;1189;24661;-45
2022/06/30 02:39:25;;;;;;;14.20;7.90;;;;;;;25.38;47.94;100370.44;117030;1188;24794;-46
2022/06/30 02:41:52;;;;;;;10.50;8.50;;;;;;;25.33;48.15;100368.32;117106;1187;23558;-46
2022/06/30 02:44:19;;;;;;;11.00;8.20;;;;;;;25.31;48.11;100360.24;116993;1188;24249;-57
2022/06/30 02:46:49;;;;;;;9.80;8.60;;;;;;;25.33;48.16;100355.39;117027;1188;23570;-57
2022/06/30 02:49:18;;;;;;;10.00;8.40;;;;;;;25.35;48.05;100356.33;116991;1187;23570;-52
2022/06/30 02:51:45;;;;;;;11.60;8.40;;;;;;;25.37;48.11;100357.39;117174;1187;24203;-46
2022/06/30 02:54:12;;;;;;;11.60;8.40;;;;;;;25.39;48.19;100356.73;117115;1187;23557;-58
2022/06/30 02:56:39;;;;;;;10.30;8.10;;;;;;;25.40;48.22;100353.10;117118;1187;23586;-58
2022/06/30 02:59:06;;;;;;;9.50;8.30;;;;;;;25.42;48.31;100357.40;117145;1187;23649;-54
2022/06/30 03:01:34;;;;;;;15.10;8.50;;;;;;;25.42;48.34;100357.75;117173;1188;23557;-47
2022/06/30 03:04:01;;;;;;;9.50;8.40;;;;;;;25.34;48.58;100355.83;117109;1188;22318;-58
2022/06/30 03:06:29;;;;;;;14.90;9.00;;;;;;;25.35;48.62;100355.25;117248;1187;23557;-58
2022/06/30 03:08:57;;;;;;;11.80;8.30;;;;;;;25.35;48.71;100350.77;117195;1188;22929;-46
2022/06/30 03:11:24;;;;;;;14.30;8.60;;;;;;;25.35;48.81;100350.79;117220;1187;24162;-58
2022/06/30 03:14:12;;;;;;;10.60;8.20;;;;;;;25.37;48.80;100351.86;117213;1187;21853;-46
2022/06/30 03:16:38;;;;;;;11.90;8.60;;;;;;;25.41;48.81;100357.86;117239;1187;23648;-58
2022/06/30 03:19:05;;;;;;;10.30;9.20;;;;;;;25.43;48.98;100359.52;117177;1188;23557;-46
2022/06/30 03:21:32;;;;;;;10.30;8.30;;;;;;;25.38;49.08;100363.81;117249;1188;23579;-59
2022/06/30 03:23:59;;;;;;;11.20;9.10;;;;;;;25.36;49.32;100360.05;117196;1188;23577;-58
2022/06/30 03:26:26;;;;;;;9.80;8.40;;;;;;;25.42;49.33;100361.56;117222;1187;23675;-58
2022/06/30 03:28:54;;;;;;;11.50;8.90;;;;;;;25.46;49.43;100366.14;117072;1187;23551;-46
2022/06/30 03:31:21;;;;;;;18.70;9.20;;;;;;;25.50;49.40;100372.52;117070;1188;24234;-46
2022/06/30 03:33:48;;;;;;;10.80;9.40;;;;;;;25.64;49.33;100368.92;117097;1188;23547;-58
2022/06/30 03:36:15;;;;;;;10.50;9.00;;;;;;;25.73;48.98;100368.46;117012;1187;23836;-59
2022/06/30 03:38:42;;;;;;;14.90;10.50;;;;;;;25.77;49.05;100374.59;116998;1188;21858;-46
2022/06/30 03:41:09;;;;;;;11.40;10.10;;;;;;;25.78;49.18;100376.84;117082;1187;21977;-46
2022/06/30 03:43:36;;;;;;;11.60;9.20;;;;;;;25.82;49.21;100373.66;117002;1188;23622;-59
2022/06/30 03:46:03;;;;;;;11.60;8.70;;;;;;;25.86;49.12;100372.09;117062;1187;24057;-59
2022/06/30 03:48:30;;;;;;;11.00;9.80;;;;;;;25.90;49.06;100376.88;117124;1188;23653;-49
2022/06/30 03:50:57;;;;;;;13.00;9.30;;;;;;;26.01;48.97;100379.42;117061;1187;24611;-58
2022/06/30 03:53:24;;;;;;;15.00;8.90;;;;;;;26.03;48.94;100375.11;117050;1187;23016;-46
2022/06/30 03:55:51;;;;;;;10.90;9.70;;;;;;;26.02;49.05;100376.48;117121;1187;23557;-46
2022/06/30 03:58:18;;;;;;;14.20;10.30;;;;;;;25.98;49.13;100374.98;117110;1187;23557;-59
2022/06/30 04:00:45;;;;;;;14.30;9.70;;;;;;;26.06;48.95;100379.54;117090;1188;24243;-47
2022/06/30 04:03:12;;;;;;;11.10;9.30;;;;;;;26.11;48.97;100379.15;117019;1187;21859;-47
2022/06/30 04:05:40;;;;;;;13.10;9.80;;;;;;;26.16;48.91;100374.33;117093;1189;23663;-47
2022/06/30 04:08:07;;;;;;;17.10;9.20;;;;;;;26.27;48.78;100371.13;117094;1188;23557;-59
2022/06/30 04:10:34;;;;;;;15.60;9.20;;;;;;;26.35;48.62;100374.84;117172;1187;23698;-58
2022/06/30 04:13:02;;;;;;;11.20;9.00;;;;;;;26.44;48.49;100378.11;117102;1188;23564;-47
2022/06/30 04:15:30;;;;;;;15.50;9.70;;;;;;;26.53;48.54;100374.65;117151;1188;24013;-47
2022/06/30 04:17:58;;;;;;;10.60;8.90;;;;;;;26.61;48.47;100371.54;117111;1188;21905;-47
2022/06/30 04:20:25;;;;;;;10.50;8.70;;;;;;;26.65;48.48;100372.83;117093;1187;24176;-47
2022/06/30 04:22:53;;;;;;;11.60;8.70;;;;;;;26.70;48.46;100376.02;117114;1188;23666;-48
2022/06/30 04:25:20;;;;;;;9.40;8.50;;;;;;;26.76;48.38;100377.39;117278;1188;23599;-59
2022/06/30 04:27:52;;;;;;;14.30;8.30;;;;;;;26.83;48.31;100373.96;117126;1188;23656;-54
2022/06/30 04:32:37;;;;;;;11.80;8.20;;;;;;;26.90;48.33;100370.70;116995;1189;24162;-59
2022/06/30 04:33:06;;;;;;;10.40;8.40;;;;;;;26.93;48.15;100371.65;117106;1188;23659;-59
2022/06/30 04:35:34;;;;;;;11.00;8.10;;;;;;;27.00;48.10;100372.54;117091;1188;23557;-59
2022/06/30 04:38:03;;;;;;;9.80;8.60;;;;;;;27.08;48.01;100378.08;117137;1187;21846;-48
2022/06/30 04:43:16;;;;;;;13.10;8.20;;;;;;;27.10;48.02;100380.73;116879;1188;24247;-47
2022/06/30 04:45:43;;;;;;;9.40;7.40;;;;;;;27.08;48.11;100382.53;116922;1189;22932;-48
2022/06/30 04:48:11;;;;;;;10.50;8.20;;;;;;;27.07;48.20;100382.45;116990;1192;21861;-59
2022/06/30 04:50:40;;;;;;;10.20;8.30;;;;;;;27.12;48.14;100382.60;117057;1188;23822;-60
2022/06/30 04:53:07;;;;;;;13.00;7.20;;;;;;;27.24;48.08;100385.39;117110;1188;22892;-60
2022/06/30 04:55:34;;;;;;;14.40;8.00;;;;;;;27.38;47.78;100384.05;117110;1187;24017;-60
2022/06/30 04:58:00;;;;;;;15.30;8.80;;;;;;;27.52;47.97;100379.86;117096;1188;24215;-51
2022/06/30 05:00:28;;;;;;;10.00;7.20;;;;;;;27.70;47.99;100374.61;117093;1188;23580;-60
2022/06/30 05:02:55;;;;;;;10.60;7.70;;;;;;;27.90;47.84;100373.98;117077;1188;23641;-60
2022/06/30 05:05:22;;;;;;;10.80;6.10;;;;;;;28.11;47.69;100376.16;117178;1188;24217;-60
2022/06/30 05:07:49;;;;;;;11.10;6.40;;;;;;;28.32;47.36;100371.67;117152;1182;23609;-59
2022/06/30 05:10:16;;;;;;;8.70;5.90;;;;;;;28.52;47.37;100368.83;117163;1188;23576;-48
2022/06/30 05:12:43;;;;;;;10.90;6.80;;;;;;;28.75;47.03;100365.18;117158;1187;23624;-59
2022/06/30 05:15:10;;;;;;;7.80;6.00;;;;;;;28.98;46.80;100358.08;117148;1187;22931;-48
2022/06/30 05:17:40;;;;;;;10.50;6.10;;;;;;;29.20;46.66;100360.77;117168;1188;22908;-57
2022/06/30 05:20:08;;;;;;;13.20;7.70;;;;;;;29.43;46.47;100359.27;117180;1187;23873;-60
2022/06/30 05:22:35;;;;;;;13.40;7.60;;;;;;;29.66;46.31;100351.63;117258;1187;21857;-48
2022/06/30 05:27:48;;;;;;;9.90;7.20;;;;;;;30.08;46.08;100353.27;117103;1187;23552;-60
2022/06/30 05:30:15;;;;;;;7.70;5.70;;;;;;;30.29;45.92;100353.62;117021;1188;21853;-59
2022/06/30 05:32:45;;;;;;;8.80;5.60;;;;;;;30.52;45.39;100353.60;117093;1188;23656;-50
2022/06/30 05:35:12;;;;;;;12.50;7.20;;;;;;;30.73;45.28;100353.23;117016;1188;21856;-59
2022/06/30 05:37:39;;;;;;;6.50;5.60;;;;;;;30.91;45.11;100349.46;117106;1188;23598;-60
2022/06/30 05:40:06;;;;;;;6.50;5.60;;;;;;;31.06;44.78;100351.71;116973;1190;21852;-48
2022/06/30 05:42:33;;;;;;;8.70;5.90;;;;;;;31.16;44.26;100350.06;117119;1187;23569;-59
2022/06/30 05:45:00;;;;;;;7.20;5.60;;;;;;;31.21;44.48;100353.41;116963;1188;24180;-48
2022/06/30 05:47:27;;;;;;;6.30;5.30;;;;;;;31.38;44.40;100353.34;117129;1187;21868;-59
2022/06/30 05:49:55;;;;;;;8.30;5.70;;;;;;;31.60;44.16;100349.25;117092;1188;23614;-60
2022/06/30 05:52:22;;;;;;;6.80;5.20;;;;;;;31.83;44.14;100348.56;117095;1188;22629;-49
2022/06/30 05:54:48;;;;;;;7.60;5.70;;;;;;;32.05;43.88;100346.40;117083;1188;23559;-59
2022/06/30 05:57:15;;;;;;;8.00;6.20;;;;;;;32.20;43.45;100344.45;117024;1191;23599;-49
2022/06/30 05:59:42;;;;;;;6.00;5.40;;;;;;;32.32;43.40;100347.94;116949;1188;23567;-48
2022/06/30 06:02:09;;;;;;;9.10;5.90;;;;;;;32.48;43.10;100347.36;116939;1188;22012;-59
2022/06/30 06:04:37;;;;;;;8.60;6.40;;;;;;;32.53;42.49;100342.09;117126;1189;23557;-48
2022/06/30 06:07:04;;;;;;;7.90;6.40;;;;;;;32.54;42.30;100342.20;117085;1187;23586;-60
2022/06/30 06:09:31;;;;;;;9.10;6.10;;;;;;;32.55;42.26;100343.77;117169;1188;23567;-59
2022/06/30 06:11:58;;;;;;;11.00;6.70;;;;;;;32.61;41.89;100340.52;117087;1188;23574;-49
2022/06/30 06:14:25;;;;;;;7.30;6.00;;;;;;;32.67;42.22;100338.08;117087;1189;21861;-60
2022/06/30 06:16:52;;;;;;;6.60;6.00;;;;;;;32.85;41.71;100335.05;117125;1188;23625;-48
2022/06/30 06:19:19;;;;;;;7.10;6.40;;;;;;;32.84;41.26;100336.11;117075;1187;23570;-49
2022/06/30 06:21:49;;;;;;;7.30;5.80;;;;;;;32.79;41.25;100333.73;117083;1187;21880;-49
2022/06/30 06:24:17;;;;;;;9.40;6.30;;;;;;;32.77;40.89;100329.15;117138;1188;22525;-49
2022/06/30 06:26:45;;;;;;;7.10;6.40;;;;;;;32.81;41.21;100328.27;116943;1188;23547;-50
2022/06/30 06:29:14;;;;;;;11.30;6.10;;;;;;;32.87;41.43;100321.48;117052;1188;24171;-48
2022/06/30 06:31:42;;;;;;;6.90;5.90;;;;;;;33.03;41.31;100320.64;117106;1188;22286;-60
2022/06/30 06:34:09;;;;;;;8.00;6.60;;;;;;;33.16;40.93;100320.60;117123;1187;23631;-60
2022/06/30 06:36:36;;;;;;;9.00;6.20;;;;;;;33.26;40.77;100319.80;117126;1187;22180;-49
2022/06/30 06:39:03;;;;;;;12.90;6.50;;;;;;;33.38;40.79;100316.68;117072;1189;23648;-49
2022/06/30 06:41:30;;;;;;;11.00;6.50;;;;;;;33.50;40.49;100314.31;117314;1188;23596;-60
2022/06/30 06:43:57;;;;;;;7.80;6.70;;;;;;;33.64;40.59;100314.16;117062;1189;23576;-60
2022/06/30 06:46:27;;;;;;;8.10;6.60;;;;;;;33.88;40.24;100314.79;117081;1188;23660;-60
2022/06/30 06:48:56;;;;;;;8.10;6.50;;;;;;;33.97;39.81;100312.91;117002;1188;23819;-49
2022/06/30 06:51:23;;;;;;;9.60;6.20;;;;;;;34.12;39.54;100311.02;117191;1188;23619;-48
2022/06/30 06:53:50;;;;;;;10.00;6.60;;;;;;;34.19;39.29;100311.90;117164;1189;23555;-50
2022/06/30 06:56:17;;;;;;;8.60;5.70;;;;;;;34.32;39.57;100307.27;117018;1188;23597;-60
2022/06/30 06:58:44;;;;;;;9.70;6.40;;;;;;;34.50;39.29;100303.73;117124;1188;23554;-49
2022/06/30 07:01:11;;;;;;;8.40;5.80;;;;;;;34.75;39.32;100306.38;117244;1187;21868;-60
2022/06/30 07:03:39;;;;;;;13.10;6.60;;;;;;;35.00;38.36;100304.80;117178;1188;24774;-49
2022/06/30 07:06:07;;;;;;;10.30;6.10;;;;;;;35.16;37.84;100308.55;117161;1188;23575;-49
2022/06/30 07:08:35;;;;;;;12.70;7.10;;;;;;;35.24;38.48;100312.20;117181;1187;23013;-59
2022/06/30 07:11:03;;;;;;;9.00;6.00;;;;;;;35.38;38.76;100322.08;117183;1187;23552;-49
2022/06/30 07:13:31;;;;;;;7.50;6.00;;;;;;;35.50;38.22;100331.09;117103;1188;22926;-51
2022/06/30 07:15:58;;;;;;;13.10;6.60;;;;;;;35.64;37.87;100342.67;117175;1182;23552;-50
2022/06/30 07:18:27;;;;;;;10.40;7.70;;;;;;;35.72;37.46;100352.47;117054;1188;21885;-49
2022/06/30 07:20:54;;;;;;;11.80;8.20;;;;;;;35.69;37.75;100358.86;117147;1187;23544;-51
2022/06/30 07:23:21;;;;;;;12.90;7.90;;;;;;;35.73;37.93;100361.48;117564;1188;23542;-50
2022/06/30 07:25:57;;;;;;;12.70;7.80;;;;;;;35.89;38.21;100355.05;117174;1182;22945;-60
2022/06/30 07:28:25;;;;;;;12.10;7.00;;;;;;;36.16;38.60;100356.39;117233;1187;23596;-60
2022/06/30 07:31:12;;;;;;;11.20;6.50;;;;;;;36.52;38.28;100363.29;117067;1188;22701;-60
2022/06/30 07:33:42;;;;;;;10.30;5.90;;;;;;;36.77;37.67;100375.05;117101;1189;21851;-49
2022/06/30 07:36:09;;;;;;;13.60;7.20;;;;;;;36.72;37.55;100381.55;117080;1189;22932;-49
2022/06/30 07:38:36;;;;;;;8.00;6.20;;;;;;;36.65;37.52;100389.53;117073;1188;23579;-49
2022/06/30 07:41:03;;;;;;;9.40;6.10;;;;;;;36.65;37.28;100396.36;117077;1188;22927;-59
2022/06/30 07:43:30;;;;;;;9.70;6.00;;;;;;;36.52;37.17;100402.31;117102;1188;23598;-61
2022/06/30 07:45:57;;;;;;;6.10;5.50;;;;;;;36.34;37.01;100405.54;117096;1188;23553;-60
2022/06/30 07:48:24;;;;;;;10.40;5.50;;;;;;;36.16;36.92;100413.55;117133;1187;23577;-48
2022/06/30 07:50:51;;;;;;;7.40;6.00;;;;;;;36.00;36.74;100413.11;117072;1188;22645;-59
2022/06/30 07:53:18;;;;;;;10.30;5.50;;;;;;;35.94;36.83;100415.04;117032;1189;22507;-48
2022/06/30 07:55:45;;;;;;;6.80;5.10;;;;;;;35.94;36.75;100416.17;118541;1187;24014;-58
2022/06/30 07:58:12;;;;;;;5.40;4.90;;;;;;;36.03;36.87;100416.36;118027;1188;23557;-59
2022/06/30 08:00:39;;;;;;;10.90;5.60;;;;;;;36.23;36.84;100412.85;117048;1189;23556;-58
2022/06/30 08:03:06;;;;;;;5.60;4.90;;;;;;;36.45;36.33;100411.40;116918;1188;23569;-48
2022/06/30 08:05:34;;;;;;;6.30;5.00;;;;;;;36.55;36.32;100412.91;117127;1188;23637;-49
2022/06/30 08:08:01;;;;;;;6.90;5.30;;;;;;;36.79;35.99;100413.79;116879;1188;23554;-48
2022/06/30 08:10:28;;;;;;;5.80;4.80;;;;;;;36.94;35.73;100417.33;117105;1188;23554;-59
2022/06/30 08:12:56;;;;;;;5.50;5.00;;;;;;;37.07;35.86;100423.07;117169;1188;23549;-49
2022/06/30 08:15:25;;;;;;;7.90;5.40;;;;;;;37.30;35.50;100422.63;117104;1188;23554;-48
2022/06/30 08:17:52;;;;;;;10.80;6.30;;;;;;;37.47;35.27;100421.55;117136;1187;23596;-59
2022/06/30 08:20:19;;;;;;;10.90;5.40;;;;;;;37.55;35.06;100426.64;117062;1188;22799;-48
2022/06/30 08:22:46;;;;;;;8.40;5.40;;;;;;;37.52;35.29;100421.30;117034;1188;22813;-48
2022/06/30 08:25:13;;;;;;;10.40;5.50;;;;;;;37.72;35.11;100420.05;117083;1187;21857;-49
2022/06/30 08:27:40;;;;;;;9.10;5.30;;;;;;;37.88;35.12;100417.88;117050;1188;21861;-60
2022/06/30 08:30:08;;;;;;;10.30;5.60;;;;;;;38.08;35.09;100420.30;117251;1188;21845;-59
2022/06/30 08:32:35;;;;;;;6.20;5.60;;;;;;;38.39;34.44;100418.70;116980;1185;21865;-58
2022/06/30 08:35:05;;;;;;;7.90;5.40;;;;;;;38.63;33.88;100421.39;117055;1188;21854;-59
2022/06/30 08:37:32;;;;;;;9.20;5.70;;;;;;;38.74;33.77;100425.46;117125;1188;22842;-59
2022/06/30 08:42:44;;;;;;;8.70;4.60;;;;;;;38.68;33.55;100430.21;117108;1189;23567;-48
2022/06/30 08:45:17;;;;;;;7.00;5.50;;;;;;;38.67;33.33;100434.64;116945;1185;21976;-48
2022/06/30 08:47:46;;;;;;;10.50;5.20;;;;;;;38.62;33.30;100429.20;117047;1187;23059;-48
2022/06/30 08:50:14;;;;;;;7.90;4.70;;;;;;;38.63;32.98;100425.08;117123;1188;22883;-59
2022/06/30 08:52:48;;;;;;;8.50;4.70;;;;;;;38.58;32.84;100423.39;117074;1187;22897;-59
2022/06/30 08:55:24;;;;;;;7.90;4.50;;;;;;;38.49;32.75;100425.79;117145;1187;21847;-60
2022/06/30 08:57:55;;;;;;;6.00;4.40;;;;;;;38.38;32.70;100423.18;117037;1188;22664;-59
2022/06/30 09:00:22;;;;;;;7.00;3.80;;;;;;;38.16;32.84;100423.61;117017;1184;21818;-59
2022/06/30 09:02:49;;;;;;;6.10;3.60;;;;;;;37.99;32.94;100423.30;117120;1188;22672;-59
2022/06/30 09:05:16;;;;;;;6.00;4.20;;;;;;;37.96;32.75;100424.98;117012;1188;21940;-59
2022/06/30 09:07:44;;;;;;;5.50;3.40;;;;;;;37.86;32.75;100428.88;117072;1188;23557;-49
2022/06/30 09:10:31;;;;;;;8.10;3.20;;;;;;;37.82;32.77;100432.42;117078;1188;24054;-48
2022/06/30 09:13:00;;;;;;;4.20;3.20;;;;;;;37.87;32.75;100436.28;117199;1187;23630;-60
2022/06/30 09:15:31;;;;;;;5.00;3.20;;;;;;;37.93;32.77;100443.58;117151;1189;23593;-59
2022/06/30 09:18:00;;;;;;;8.20;3.40;;;;;;;38.13;32.83;100450.17;117153;1188;23553;-49
2022/06/30 09:20:35;;;;;;;3.60;2.80;;;;;;;38.33;32.63;100456.05;117116;1188;21885;-50
2022/06/30 09:23:21;;;;;;;5.20;3.20;;;;;;;38.48;32.54;100460.33;117173;1187;23596;-60
2022/06/30 09:25:50;;;;;;;6.40;3.00;;;;;;;38.57;32.26;100463.61;117055;1189;23611;-49
2022/06/30 09:28:38;;;;;;;4.10;2.90;;;;;;;38.61;32.24;100473.23;117009;1188;23932;-50
2022/06/30 09:31:05;;;;;;;3.50;3.00;;;;;;;38.58;32.04;100480.79;117101;1189;23550;-49
2022/06/30 09:33:35;;;;;;;4.70;3.00;;;;;;;38.45;31.86;100482.02;117190;1188;23596;-59
2022/06/30 09:36:18;;;;;;;4.10;3.20;;;;;;;38.18;31.87;100477.05;117228;1188;23685;-49
2022/06/30 09:39:00;;;;;;;6.60;3.20;;;;;;;37.93;31.99;100485.54;117099;1189;23576;-60
2022/06/30 09:41:28;;;;;;;6.40;3.00;;;;;;;37.74;32.09;100484.95;117097;1189;23577;-57
2022/06/30 09:43:56;;;;;;;7.30;3.50;;;;;;;37.63;32.08;100481.98;117104;1188;23657;-59
2022/06/30 09:46:23;;;;;;;5.60;3.50;;;;;;;37.49;32.06;100473.55;117109;1187;24165;-59
2022/06/30 09:48:49;;;;;;;5.80;3.60;;;;;;;37.27;32.07;100477.70;117108;1189;21870;-49
2022/06/30 09:51:17;;;;;;;5.40;4.00;;;;;;;36.92;32.29;100480.88;117076;1188;23661;-59
2022/06/30 09:54:07;;;;;;;7.30;3.90;;;;;;;36.54;32.49;100490.81;117066;1187;23577;-59
2022/06/30 09:56:36;;;;;;;8.70;4.20;;;;;;;36.02;32.81;100493.14;117034;1187;21903;-48
2022/06/30 09:59:07;;;;;;;14.60;5.10;;;;;;;35.52;33.27;100484.02;117064;1183;22970;-51
2022/06/30 10:01:51;;;;;;;15.50;5.80;;;;;;;34.91;34.58;100465.98;117151;1188;23554;-59
2022/06/30 10:04:18;;;;;;;13.20;5.70;;;;;;;34.20;35.11;100450.16;117284;1188;22282;-59
2022/06/30 10:06:46;;;;;;;10.00;6.40;;;;;;;33.64;35.91;100468.97;116996;1188;21857;-60
2022/06/30 10:09:17;;;;;;;11.00;7.30;;;;;;;33.05;37.34;100497.56;117125;1189;22994;-60
2022/06/30 10:11:46;;;;;;;13.00;6.90;;;;;;;32.24;38.18;100503.17;117108;1187;21859;-60
2022/06/30 10:14:15;;;;;;;11.80;6.50;;;;;;;31.52;38.99;100516.73;117003;1187;24220;-60
2022/06/30 10:16:43;;;;;;;13.90;7.30;;;;;;;31.01;39.84;100533.11;117147;1187;23633;-49
2022/06/30 10:19:10;;;;;;;17.30;7.10;;;;;;;30.59;40.36;100545.25;117138;1187;23592;-49
2022/06/30 10:21:39;;;;;;;22.80;8.30;;;;;;;30.25;41.07;100540.58;117032;1188;22061;-59
2022/06/30 10:24:06;;;;;;;15.50;7.90;;;;;;;29.87;41.79;100534.73;117144;1183;22607;-60
2022/06/30 10:29:20;;;;;;;15.70;7.50;;;;;;;29.25;42.52;100525.30;117083;1189;23618;-50
2022/06/30 10:31:55;;;;;;;13.30;7.30;;;;;;;29.05;42.82;100508.25;117221;1189;21866;-50
2022/06/30 10:34:24;;;;;;;13.10;7.40;;;;;;;28.94;43.55;100494.11;117749;1187;23554;-60
2022/06/30 10:36:57;;;;;;;13.60;7.30;;;;;;;28.87;43.72;100474.84;117219;1188;23595;-50
2022/06/30 10:39:27;;;;;;;12.40;6.90;;;;;;;28.83;44.30;100471.02;117197;1189;23557;-60
2022/06/30 10:41:55;;;;;;;9.00;7.10;;;;;;;28.77;44.38;100467.77;117105;1187;21856;-60
2022/06/30 10:44:24;;;;;;;8.90;7.20;;;;;;;28.71;44.34;100461.02;117172;1187;23641;-58
2022/06/30 10:46:52;;;;;;;12.50;7.30;;;;;;;28.68;44.17;100458.20;117014;1189;22961;-49
2022/06/30 10:49:20;;;;;;;20.60;7.90;;;;;;;28.68;44.08;100450.44;116936;1188;23569;-60
2022/06/30 10:51:48;;;;;;;13.10;7.00;;;;;;;28.66;44.51;100440.16;117249;1189;21845;-60
2022/06/30 10:54:29;;;;;;;8.10;7.20;;;;;;;28.68;44.35;100442.34;117108;1189;23611;-61
2022/06/30 10:56:56;;;;;;;15.20;6.80;;;;;;;28.66;44.75;100438.54;117151;1188;22999;-61
2022/06/30 10:59:34;;;;;;;11.00;7.00;;;;;;;28.57;44.77;100433.34;117151;1189;22841;-50
2022/06/30 11:02:08;;;;;;;13.20;7.30;;;;;;;28.61;44.83;100431.91;116983;1189;23557;-61
2022/06/30 11:04:39;;;;;;;9.80;7.60;;;;;;;28.61;45.21;100432.99;117245;1187;22622;-49
2022/06/30 11:07:10;;;;;;;11.80;8.20;;;;;;;28.61;45.78;100435.88;117084;1189;23599;-61
2022/06/30 11:09:44;;;;;;;11.60;8.00;;;;;;;28.66;46.32;100449.40;117009;1187;21870;-49
2022/06/30 11:12:12;;;;;;;9.10;7.30;;;;;;;28.65;46.90;100451.42;117107;1187;23544;-60
2022/06/30 11:14:57;;;;;;;13.10;7.80;;;;;;;28.60;47.33;100446.23;117161;1187;21865;-49
2022/06/30 11:17:28;;;;;;;13.10;7.90;;;;;;;28.64;47.17;100444.66;116986;1188;23555;-60
2022/06/30 11:20:08;;;;;;;10.00;8.90;;;;;;;28.79;48.09;100445.35;117010;1184;22838;-48
2022/06/30 11:22:36;;;;;;;9.90;8.90;;;;;;;28.90;48.15;100447.67;117012;1188;21854;-49
2022/06/30 11:25:05;;;;;;;11.20;8.10;;;;;;;28.98;48.18;100443.19;119210;1187;22247;-49
2022/06/30 11:27:34;;;;;;;10.80;8.00;;;;;;;29.07;48.23;100435.84;118919;1187;21898;-59
2022/06/30 11:30:03;;;;;;;9.40;7.70;;;;;;;29.26;48.22;100425.34;117201;1188;23550;-59
2022/06/30 11:32:31;;;;;;;8.90;8.00;;;;;;;29.42;48.14;100412.83;117176;1189;23564;-59
2022/06/30 11:34:58;;;;;;;10.10;8.30;;;;;;;29.58;47.91;100401.31;117022;1188;22091;-48
2022/06/30 11:37:26;;;;;;;10.00;8.10;;;;;;;29.74;47.77;100391.52;117196;1189;22926;-47